Time;durP1;ratioP1;P1;durP2;ratioP2;P2;SDS_P1;SDS_P2;PMS_P1;PMS_P2;Temp;Humidity;BMP_temperature;BMP_pressure;BME280_temperature;BME280_humidity;BME280_pressure;Samples;Min_cycle;Max_cycle;Signal;HPM_P1;HPM_P2
2023/03/18 00:04:24;;;;;;;13.60;8.30;;;;;;;2.14;58.23;100082.34;218046;1257;139152;-66
2023/03/18 00:09:31;;;;;;;18.80;9.50;;;;;;;2.09;58.12;100087.64;218762;1258;140484;-67
2023/03/18 00:14:37;;;;;;;10.70;7.40;;;;;;;2.03;58.42;100087.19;218531;1256;139370;-66
2023/03/18 00:19:43;;;;;;;15.60;8.40;;;;;;;1.99;58.66;100083.30;218647;1256;140472;-67
2023/03/18 00:24:47;;;;;;;18.30;9.30;;;;;;;1.92;58.70;100081.91;218197;1256;139177;-66
2023/03/18 00:29:52;;;;;;;12.40;8.00;;;;;;;1.86;58.81;100083.14;218168;1256;139781;-66
2023/03/18 00:34:57;;;;;;;16.20;10.20;;;;;;;1.78;58.98;100072.67;218982;1256;139793;-66
2023/03/18 00:40:09;;;;;;;15.70;8.00;;;;;;;1.73;58.91;100067.47;219097;1259;139923;-67
2023/03/18 00:45:15;;;;;;;19.00;8.40;;;;;;;1.67;59.24;100055.06;218088;1255;139891;-66
2023/03/18 00:50:19;;;;;;;13.70;6.70;;;;;;;1.62;59.58;100047.06;219721;1256;139032;-66
2023/03/18 00:55:24;;;;;;;14.60;6.30;;;;;;;1.60;59.83;100044.38;218177;1257;141080;-67
2023/03/18 01:00:30;;;;;;;10.30;6.20;;;;;;;1.59;59.76;100038.69;218255;1255;138826;-66
2023/03/18 01:05:37;;;;;;;9.10;6.40;;;;;;;1.57;59.92;100031.83;220228;1257;140049;-69
2023/03/18 01:10:41;;;;;;;9.30;6.80;;;;;;;1.56;60.23;100024.80;218012;1257;138965;-68
2023/03/18 01:15:46;;;;;;;9.80;6.40;;;;;;;1.56;60.14;100017.62;220368;1256;139078;-69
2023/03/18 01:20:50;;;;;;;8.20;5.00;;;;;;;1.54;60.33;100021.16;219166;1256;139315;-68
2023/03/18 01:25:56;;;;;;;20.80;7.80;;;;;;;1.54;60.06;100020.45;219126;1257;139727;-68
2023/03/18 01:31:02;;;;;;;15.80;7.70;;;;;;;1.55;60.44;100015.48;219577;1256;139371;-68
2023/03/18 01:36:08;;;;;;;8.30;6.60;;;;;;;1.53;60.13;100011.69;219946;1259;139380;-68
2023/03/18 01:41:16;;;;;;;7.50;6.60;;;;;;;1.51;60.57;100011.67;218413;1259;138802;-67
2023/03/18 01:46:38;;;;;;;18.40;7.90;;;;;;;1.51;60.43;100014.50;219423;1255;139014;-67
2023/03/18 01:51:47;;;;;;;10.80;5.50;;;;;;;1.52;60.60;100018.14;218912;1257;139636;-66
2023/03/18 01:56:53;;;;;;;27.10;9.30;;;;;;;1.50;60.38;100018.28;218456;1256;139461;-66
2023/03/18 02:02:02;;;;;;;8.60;6.60;;;;;;;1.50;60.48;100017.17;218687;1256;139112;-67
2023/03/18 02:07:06;;;;;;;;;;;;;;;1.48;60.56;100011.68;218084;1257;138923;-67
2023/03/18 02:12:13;;;;;;;11.00;5.50;;;;;;;1.43;60.52;100007.04;218724;1257;125569;-66
2023/03/18 02:17:23;;;;;;;8.80;6.50;;;;;;;1.41;60.61;100007.11;218661;1256;231513;-66
2023/03/18 02:22:33;;;;;;;11.90;6.00;;;;;;;1.37;60.65;100005.21;218620;1257;139290;-66
2023/03/18 02:27:45;;;;;;;10.80;6.30;;;;;;;1.35;60.93;100006.66;218686;1256;139249;-67
2023/03/18 02:32:52;;;;;;;11.40;7.10;;;;;;;1.34;60.69;100007.61;218681;1257;139569;-67
2023/03/18 02:37:58;;;;;;;10.90;6.20;;;;;;;1.33;60.60;100002.45;218840;1256;139478;-67
2023/03/18 02:43:32;;;;;;;8.80;6.60;;;;;;;1.31;60.71;99997.87;218850;1256;139945;-65
2023/03/18 02:48:42;;;;;;;13.70;5.80;;;;;;;1.30;60.66;99995.17;219119;1256;138717;-64
2023/03/18 02:53:47;;;;;;;7.50;5.60;;;;;;;1.29;60.77;99994.88;218403;1257;139335;-66
2023/03/18 02:58:51;;;;;;;8.80;6.10;;;;;;;1.28;60.99;99996.10;219039;1256;140347;-65
2023/03/18 03:03:56;;;;;;;9.60;5.80;;;;;;;1.25;60.76;99991.61;218104;1257;138723;-66
2023/03/18 03:08:59;;;;;;;13.00;8.80;;;;;;;1.24;60.71;99986.91;219159;1256;138819;-65
2023/03/18 03:14:03;;;;;;;9.20;6.10;;;;;;;1.23;60.77;99987.28;220841;1256;139458;-67
2023/03/18 03:19:07;;;;;;;14.90;6.70;;;;;;;1.22;60.55;99990.26;220929;1257;139058;-66
2023/03/18 03:24:11;;;;;;;14.70;7.00;;;;;;;1.23;60.67;99991.52;220844;1257;140923;-67
2023/03/18 03:29:16;;;;;;;10.70;6.60;;;;;;;1.24;60.47;99989.63;220666;1254;139566;-66
2023/03/18 03:34:21;;;;;;;24.20;9.50;;;;;;;1.23;60.63;99987.85;218999;1258;138923;-68
2023/03/18 03:39:27;;;;;;;11.30;5.50;;;;;;;1.17;60.46;99986.08;217857;1257;139943;-68
2023/03/18 03:44:32;;;;;;;9.90;6.00;;;;;;;1.12;60.85;99981.02;217948;1258;139568;-67
2023/03/18 03:49:37;;;;;;;9.60;6.30;;;;;;;1.09;61.00;99982.97;218387;1257;138777;-68
2023/03/18 03:54:42;;;;;;;11.20;5.50;;;;;;;1.06;60.82;99980.31;218216;1256;138796;-65
2023/03/18 03:59:47;;;;;;;12.00;5.70;;;;;;;1.01;61.20;99984.48;218436;1259;139113;-66
2023/03/18 04:04:51;;;;;;;12.60;5.50;;;;;;;0.98;60.82;99985.11;218667;1256;139620;-65
2023/03/18 04:09:56;;;;;;;8.70;5.40;;;;;;;0.97;61.21;99995.05;218524;1256;138604;-65
2023/03/18 04:15:00;;;;;;;10.50;6.30;;;;;;;0.94;61.22;99995.42;218540;1256;140429;-67
2023/03/18 04:20:05;;;;;;;11.00;6.10;;;;;;;0.88;61.11;99992.79;219030;1257;139552;-65
2023/03/18 04:25:11;;;;;;;14.60;6.80;;;;;;;0.81;61.23;100001.77;218137;1259;139632;-66
2023/03/18 04:30:15;;;;;;;7.60;5.80;;;;;;;0.74;61.84;100004.98;218493;1256;236930;-65
2023/03/18 04:35:25;;;;;;;9.90;4.90;;;;;;;0.67;61.79;100004.27;218185;1258;139897;-64
2023/03/18 04:40:29;;;;;;;11.10;6.90;;;;;;;0.62;61.69;100009.19;220161;1257;138920;-65
2023/03/18 04:45:33;;;;;;;10.50;7.20;;;;;;;0.57;61.54;100015.86;218122;1257;138927;-64
2023/03/18 04:50:37;;;;;;;9.50;5.10;;;;;;;0.53;61.80;100014.20;219161;1258;139186;-64
2023/03/18 04:55:40;;;;;;;9.10;5.80;;;;;;;0.51;62.15;100009.33;219458;1254;139732;-67
2023/03/18 05:00:45;;;;;;;13.00;5.90;;;;;;;0.50;62.20;100012.23;219233;1256;139442;-68
2023/03/18 05:05:51;;;;;;;11.70;7.00;;;;;;;0.50;62.37;100015.81;219689;1257;140321;-67
2023/03/18 05:10:55;;;;;;;11.30;5.80;;;;;;;0.50;62.63;100019.26;219080;1257;139504;-68
2023/03/18 05:15:59;;;;;;;14.50;7.00;;;;;;;0.53;62.66;100018.60;220220;1256;139399;-69
2023/03/18 05:21:04;;;;;;;12.40;6.80;;;;;;;0.57;62.69;100020.42;220244;1257;139567;-68
2023/03/18 05:26:10;;;;;;;11.70;5.50;;;;;;;0.68;62.65;100026.23;219687;1255;139869;-68
2023/03/18 05:31:14;;;;;;;13.20;7.00;;;;;;;0.78;62.54;100034.05;219496;1256;139799;-72
2023/03/18 05:36:23;;;;;;;9.30;6.30;;;;;;;0.88;62.64;100028.77;218345;1257;139704;-72
2023/03/18 05:41:28;;;;;;;9.80;6.90;;;;;;;0.98;62.59;100030.36;218603;1256;140143;-70
2023/03/18 05:46:32;;;;;;;11.50;7.10;;;;;;;1.06;62.34;100028.45;218084;1256;139744;-70
2023/03/18 05:51:36;;;;;;;13.10;6.60;;;;;;;1.14;62.91;100026.90;218599;1257;139493;-70
2023/03/18 05:56:42;;;;;;;14.90;9.00;;;;;;;1.23;62.88;100031.06;219357;1257;140117;-71
2023/03/18 06:01:47;;;;;;;8.50;6.30;;;;;;;1.36;62.55;100032.10;218450;1257;139991;-68
2023/03/18 06:06:52;;;;;;;10.70;7.20;;;;;;;1.51;62.40;100034.20;218255;1260;138944;-69
2023/03/18 06:11:57;;;;;;;17.00;9.10;;;;;;;1.65;62.32;100035.75;218769;1257;139628;-68
2023/03/18 06:17:02;;;;;;;13.20;8.10;;;;;;;1.79;62.20;100037.89;218229;1259;139340;-72
2023/03/18 06:22:06;;;;;;;10.70;6.70;;;;;;;1.92;61.87;100042.50;218555;1257;141146;-69
2023/03/18 06:27:10;;;;;;;9.80;6.90;;;;;;;2.04;61.49;100042.95;218994;1259;140605;-71
2023/03/18 06:32:14;;;;;;;14.40;9.80;;;;;;;2.12;61.59;100043.92;218070;1257;139189;-70
2023/03/18 06:37:19;;;;;;;15.10;7.20;;;;;;;2.24;61.36;100044.31;218151;1256;139202;-71
2023/03/18 06:42:24;;;;;;;24.30;8.40;;;;;;;2.40;61.19;100045.38;218002;1258;139368;-69
2023/03/18 06:47:28;;;;;;;13.40;7.40;;;;;;;2.59;60.89;100041.55;219457;1257;140806;-69
2023/03/18 06:52:35;;;;;;;11.60;8.20;;;;;;;2.81;60.86;100033.02;219321;1259;139290;-69
2023/03/18 06:57:40;;;;;;;11.40;7.40;;;;;;;3.11;60.46;100031.47;220730;1258;139430;-72
2023/03/18 07:02:45;;;;;;;15.30;6.10;;;;;;;3.45;60.02;100030.60;219893;1257;138977;-70
2023/03/18 07:07:50;;;;;;;15.40;7.40;;;;;;;3.78;59.48;100035.75;220781;1257;139654;-68
2023/03/18 07:12:56;;;;;;;12.10;7.10;;;;;;;4.03;59.34;100032.57;220749;1255;139895;-71
2023/03/18 07:18:01;;;;;;;11.90;7.70;;;;;;;4.50;58.92;100030.27;220726;1259;139165;-67
2023/03/18 07:23:07;;;;;;;10.80;8.20;;;;;;;5.59;58.14;100032.86;220721;1255;140285;-69
2023/03/18 07:28:13;;;;;;;10.60;6.70;;;;;;;6.98;57.19;100027.89;218610;1257;139295;-69
2023/03/18 07:33:18;;;;;;;13.40;6.90;;;;;;;8.23;55.37;100018.30;218981;1257;139169;-67
2023/03/18 07:38:24;;;;;;;14.30;7.70;;;;;;;9.43;54.67;100014.16;218347;1259;139438;-68
2023/03/18 07:43:30;;;;;;;18.50;9.00;;;;;;;10.08;52.71;100012.45;218555;1258;139207;-72
2023/03/18 07:48:35;;;;;;;19.50;8.80;;;;;;;10.19;52.17;100010.39;218382;1256;139766;-72
2023/03/18 07:53:41;;;;;;;14.00;7.90;;;;;;;10.31;51.61;100002.83;219063;1261;139526;-71
2023/03/18 07:58:45;;;;;;;12.60;8.10;;;;;;;10.06;50.61;100005.42;220306;1256;140105;-71
2023/03/18 08:03:50;;;;;;;14.50;8.40;;;;;;;9.96;50.45;99999.21;219636;1256;139744;-80
2023/03/18 08:08:54;;;;;;;16.00;7.00;;;;;;;9.93;50.01;100000.30;218267;1256;140162;-67
2023/03/18 08:13:59;;;;;;;13.40;8.50;;;;;;;9.92;50.07;99999.33;218652;1255;139907;-67
2023/03/18 08:19:04;;;;;;;12.10;6.60;;;;;;;10.10;50.33;99996.58;217769;1258;139914;-68
2023/03/18 08:24:09;;;;;;;13.10;7.90;;;;;;;10.54;50.36;99990.73;218608;1260;139360;-68
2023/03/18 08:29:14;;;;;;;12.60;7.70;;;;;;;10.76;49.92;99986.56;217506;1260;139626;-68
2023/03/18 08:34:18;;;;;;;8.70;6.10;;;;;;;10.64;48.31;99986.98;217679;1260;140034;-69
2023/03/18 08:39:22;;;;;;;12.80;7.40;;;;;;;10.64;48.70;99986.12;217838;1257;139218;-68
2023/03/18 08:44:27;;;;;;;11.40;7.70;;;;;;;10.67;48.57;99989.51;217946;1257;139135;-70
2023/03/18 08:49:32;;;;;;;13.90;6.60;;;;;;;10.72;48.80;99986.09;218189;1257;139845;-67
2023/03/18 08:54:36;;;;;;;11.50;7.00;;;;;;;10.75;48.25;99986.48;217273;1260;140348;-68
2023/03/18 08:59:39;;;;;;;11.90;7.30;;;;;;;10.59;47.31;99988.77;218403;1258;140795;-68
2023/03/18 09:04:46;;;;;;;13.10;6.70;;;;;;;10.37;47.13;99984.38;218280;1257;139754;-68
2023/03/18 09:09:51;;;;;;;10.80;6.80;;;;;;;10.45;47.78;99982.05;217587;1257;140564;-68
2023/03/18 09:14:55;;;;;;;15.50;8.30;;;;;;;10.76;47.63;99976.71;217916;1260;140242;-69
2023/03/18 09:19:58;;;;;;;16.70;8.60;;;;;;;11.06;47.16;99969.68;217683;1260;139646;-68
2023/03/18 09:25:02;;;;;;;10.40;7.10;;;;;;;11.35;46.76;99965.73;217920;1256;247556;-68
2023/03/18 09:30:06;;;;;;;8.10;6.00;;;;;;;11.54;47.12;99964.05;218219;1256;140047;-72
2023/03/18 09:35:11;;;;;;;12.10;7.90;;;;;;;11.76;46.33;99965.70;217469;1260;140038;-69
2023/03/18 09:40:28;;;;;;;11.60;6.40;;;;;;;11.81;46.36;99963.04;218060;1257;140246;-67
2023/03/18 09:45:43;;;;;;;11.60;6.80;;;;;;;12.00;46.57;99962.23;220421;1256;140427;-71
2023/03/18 09:50:54;;;;;;;12.50;7.50;;;;;;;12.13;45.64;99961.30;220296;1257;140662;-71
2023/03/18 09:56:00;;;;;;;12.40;7.60;;;;;;;12.22;45.43;99955.75;220341;1257;139630;-74
2023/03/18 10:01:06;;;;;;;12.40;6.70;;;;;;;12.39;45.80;99954.71;220244;1257;140084;-72
2023/03/18 10:06:17;;;;;;;8.30;6.70;;;;;;;12.63;45.46;99950.13;218359;1257;139882;-72
2023/03/18 10:11:41;;;;;;;9.50;6.20;;;;;;;12.72;44.91;99941.40;217530;1257;139307;-77
2023/03/18 10:17:00;;;;;;;10.70;5.80;;;;;;;12.84;45.01;99932.01;219020;1257;140763;-76
2023/03/18 10:22:23;;;;;;;6.40;3.50;;;;;;;12.99;44.30;99930.80;217397;1257;139940;-72
2023/03/18 10:28:02;;;;;;;7.70;5.10;;;;;;;13.15;43.53;99926.48;217647;1257;141441;-63
2023/03/18 10:33:43;;;;;;;6.70;5.80;;;;;;;13.15;42.97;99923.91;217810;1257;139855;-71
2023/03/18 10:38:50;;;;;;;7.60;4.90;;;;;;;13.15;42.14;99922.67;220402;1257;139564;-74
2023/03/18 10:43:56;;;;;;;8.80;4.70;;;;;;;13.36;42.37;99927.73;218084;1257;139228;-73
2023/03/18 10:49:09;;;;;;;7.40;5.00;;;;;;;13.67;41.84;99928.61;217699;1260;138721;-70
2023/03/18 10:54:33;;;;;;;5.30;4.80;;;;;;;13.83;41.56;99932.11;217649;1257;139767;-70
2023/03/18 10:59:38;;;;;;;8.90;5.80;;;;;;;13.92;41.12;99927.86;217834;1258;140559;-68
2023/03/18 11:05:00;;;;;;;12.20;7.00;;;;;;;14.05;41.11;99925.98;217788;1257;140137;-69
2023/03/18 11:10:23;;;;;;;9.70;5.90;;;;;;;14.06;40.87;99925.17;217326;1256;454735;-70
2023/03/18 11:15:37;;;;;;;10.20;6.80;;;;;;;14.18;41.00;99923.04;217563;1257;140493;-69
2023/03/18 11:20:46;;;;;;;8.70;5.70;;;;;;;14.36;40.55;99925.58;218520;1260;140249;-70
2023/03/18 11:25:54;;;;;;;8.50;6.40;;;;;;;14.27;39.57;99919.75;218758;1257;138616;-69
2023/03/18 11:31:05;;;;;;;9.70;6.60;;;;;;;14.22;40.12;99917.08;218796;1256;141136;-69
2023/03/18 11:36:16;;;;;;;9.10;6.80;;;;;;;14.39;40.08;99911.42;218127;1260;138697;-69
2023/03/18 11:41:29;;;;;;;11.20;5.70;;;;;;;14.43;39.96;99901.83;217388;1258;138920;-69
2023/03/18 11:46:46;;;;;;;11.40;7.20;;;;;;;14.58;39.89;99895.59;217564;1258;139127;-69
2023/03/18 11:52:33;;;;;;;12.10;7.20;;;;;;;14.61;39.88;99885.46;219358;1258;139225;-70
2023/03/18 11:58:16;;;;;;;9.60;6.60;;;;;;;14.68;40.09;99881.05;219753;1256;139983;-69
2023/03/18 12:03:51;;;;;;;8.80;6.50;;;;;;;14.79;40.02;99875.87;217440;1259;139270;-70
2023/03/18 12:09:08;;;;;;;6.60;5.20;;;;;;;14.49;38.74;99878.17;218899;1257;140091;-73
2023/03/18 12:14:37;;;;;;;14.30;7.10;;;;;;;14.21;38.73;99883.17;217844;1257;139384;-67
2023/03/18 12:19:53;;;;;;;12.50;7.40;;;;;;;14.13;39.07;99882.13;218468;1257;138675;-71
2023/03/18 12:25:04;;;;;;;15.10;7.30;;;;;;;14.09;38.81;99878.77;217675;1254;139601;-71
2023/03/18 12:30:18;;;;;;;10.80;7.00;;;;;;;13.87;38.34;99878.98;217734;1257;138800;-68
2023/03/18 12:35:30;;;;;;;8.40;6.40;;;;;;;13.70;38.79;99877.96;217448;1257;139403;-69
2023/03/18 12:41:06;;;;;;;11.30;7.10;;;;;;;13.64;38.98;99869.48;217462;1259;138886;-69
2023/03/18 12:46:33;;;;;;;15.10;7.30;;;;;;;13.62;39.10;99868.70;218279;1255;139048;-69
2023/03/18 12:51:48;;;;;;;12.70;7.30;;;;;;;13.54;38.45;99868.13;217464;1260;139980;-66
2023/03/18 12:57:05;;;;;;;11.60;7.50;;;;;;;13.46;38.62;99860.65;217458;1256;139991;-67
2023/03/18 13:02:25;;;;;;;9.40;6.60;;;;;;;13.48;38.88;99860.93;218222;1257;138641;-70
2023/03/18 13:08:15;;;;;;;9.60;7.10;;;;;;;13.60;39.24;99858.13;217365;1260;139279;-72
2023/03/18 13:13:21;;;;;;;9.70;6.40;;;;;;;13.77;39.01;99852.05;217449;1260;139608;-70
2023/03/18 13:18:32;;;;;;;10.80;8.40;;;;;;;13.97;39.22;99851.80;218003;1256;139996;-74
2023/03/18 13:23:56;;;;;;;8.00;6.50;;;;;;;14.06;38.33;99852.74;218363;1256;139415;-69
2023/03/18 13:29:12;;;;;;;11.40;5.70;;;;;;;14.16;38.27;99848.38;218828;1257;139712;-66
2023/03/18 13:34:56;;;;;;;11.40;5.90;;;;;;;14.30;37.72;99847.39;218688;1257;139586;-67
2023/03/18 13:40:19;;;;;;;7.20;5.80;;;;;;;14.36;38.08;99849.42;217693;1256;139181;-67
2023/03/18 13:45:32;;;;;;;7.10;6.30;;;;;;;14.45;38.38;99849.60;220424;1255;139184;-69
2023/03/18 13:50:39;;;;;;;6.00;4.50;;;;;;;14.46;37.72;99845.05;220210;1256;139513;-70
2023/03/18 13:55:53;;;;;;;;;;;;;;;14.39;37.21;99844.12;220569;1255;139086;-74
2023/03/18 14:00:59;;;;;;;6.60;4.60;;;;;;;14.28;37.45;99844.47;220377;1255;125801;-68
2023/03/18 14:06:03;;;;;;;7.60;4.80;;;;;;;14.39;37.56;99840.48;218921;1255;139787;-71
2023/03/18 14:11:18;;;;;;;5.90;4.50;;;;;;;14.54;37.61;99834.02;217899;1259;139765;-71
2023/03/18 14:16:36;;;;;;;6.50;4.80;;;;;;;14.63;37.76;99836.23;217952;1256;138850;-69
2023/03/18 14:21:48;;;;;;;9.20;5.60;;;;;;;14.63;37.54;99834.66;217448;1256;139077;-73
2023/03/18 14:27:05;;;;;;;6.90;4.70;;;;;;;14.45;37.04;99831.04;217581;1255;139343;-69
2023/03/18 14:32:30;;;;;;;8.90;5.70;;;;;;;14.28;37.04;99831.87;217723;1257;139387;-73
2023/03/18 14:38:11;;;;;;;8.30;5.10;;;;;;;14.13;37.08;99833.60;217598;1255;139225;-72
2023/03/18 14:43:28;;;;;;;10.00;5.20;;;;;;;14.05;37.13;99832.20;218474;1259;140064;-70
2023/03/18 14:48:34;;;;;;;8.00;4.60;;;;;;;13.89;37.48;99829.91;217608;1256;139877;-68
2023/03/18 14:53:50;;;;;;;13.50;7.90;;;;;;;13.76;37.52;99826.80;217781;1256;138830;-66
2023/03/18 14:58:58;;;;;;;10.10;5.40;;;;;;;13.66;37.53;99829.11;218756;1256;139776;-72
2023/03/18 15:04:21;;;;;;;7.00;4.00;;;;;;;13.58;37.15;99825.48;218296;1256;220478;-70
2023/03/18 15:09:32;;;;;;;9.70;8.30;;;;;;;13.47;37.58;99824.35;217907;1256;139493;-71
2023/03/18 15:14:41;;;;;;;15.50;7.90;;;;;;;13.42;37.89;99827.10;219027;1257;140004;-70
2023/03/18 15:19:46;;;;;;;23.40;12.10;;;;;;;13.36;37.80;99826.64;217757;1256;140753;-74
2023/03/18 15:24:59;;;;;;;12.10;9.20;;;;;;;13.30;38.01;99825.66;217682;1258;139438;-80
2023/03/18 15:30:28;;;;;;;19.60;9.20;;;;;;;13.26;38.25;99827.16;218061;1258;140224;-67
2023/03/18 15:35:34;;;;;;;28.10;23.60;;;;;;;13.17;38.13;99833.31;217603;1256;139323;-71
2023/03/18 15:41:05;;;;;;;8.10;6.80;;;;;;;13.04;37.84;99836.46;219880;1257;139179;-79
2023/03/18 15:46:31;;;;;;;17.20;8.60;;;;;;;12.95;37.98;99842.36;220239;1255;139004;-68
2023/03/18 15:51:46;;;;;;;10.60;4.40;;;;;;;12.81;38.10;99839.63;218144;1256;141869;-70
2023/03/18 15:56:51;;;;;;;11.10;6.60;;;;;;;12.69;38.40;99838.97;217573;1257;140293;-69
2023/03/18 16:01:58;;;;;;;;;;;;;;;12.59;38.73;99841.58;218501;1256;139680;-70
2023/03/18 16:07:02;;;;;;;11.40;5.80;;;;;;;12.47;38.72;99845.17;217947;1255;125612;-69
2023/03/18 16:12:18;;;;;;;11.20;5.70;;;;;;;12.39;38.86;99847.67;217621;1259;139525;-70
2023/03/18 16:17:21;;;;;;;6.90;5.20;;;;;;;12.31;39.16;99853.14;217563;1256;139037;-74
2023/03/18 16:22:27;;;;;;;9.30;5.90;;;;;;;12.22;39.27;99859.95;218583;1257;139341;-69
2023/03/18 16:27:40;;;;;;;10.60;6.10;;;;;;;12.11;39.15;99866.08;217421;1256;138925;-71
2023/03/18 16:32:44;;;;;;;7.20;6.30;;;;;;;11.99;39.44;99867.58;217367;1256;141561;-75
2023/03/18 16:37:50;;;;;;;16.90;6.90;;;;;;;11.86;39.49;99868.31;217384;1257;139456;-68
2023/03/18 16:42:56;;;;;;;16.80;8.20;;;;;;;11.68;39.54;99869.19;217443;1256;139962;-66
2023/03/18 16:48:06;;;;;;;9.40;6.00;;;;;;;11.46;39.89;99868.38;217706;1256;140025;-70
2023/03/18 16:53:16;;;;;;;17.10;8.50;;;;;;;11.23;40.00;99869.89;217282;1259;219638;-68
2023/03/18 16:58:33;;;;;;;15.60;8.90;;;;;;;11.06;40.33;99869.80;217654;1257;140389;-70
2023/03/18 17:03:40;;;;;;;14.20;8.40;;;;;;;10.89;40.75;99874.92;217196;1260;139208;-70
2023/03/18 17:08:44;;;;;;;16.50;8.80;;;;;;;10.71;42.17;99873.45;218115;1258;139299;-66
2023/03/18 17:13:49;;;;;;;14.50;8.90;;;;;;;10.47;43.03;99878.37;218462;1255;140107;-69
2023/03/18 17:18:53;;;;;;;20.90;9.70;;;;;;;10.03;43.78;99880.30;217536;1258;140721;-72
2023/03/18 17:23:57;;;;;;;23.40;13.00;;;;;;;9.78;43.85;99882.28;218466;1259;140127;-71
2023/03/18 17:29:01;;;;;;;29.20;15.60;;;;;;;9.64;43.73;99880.39;218570;1256;139209;-71
2023/03/18 17:34:13;;;;;;;44.50;19.30;;;;;;;9.51;44.19;99883.38;220493;1255;139678;-72
2023/03/18 17:39:21;;;;;;;38.80;17.50;;;;;;;9.35;45.05;99884.33;220240;1256;141433;-67
2023/03/18 17:44:28;;;;;;;24.70;14.30;;;;;;;9.17;46.46;99888.27;219724;1256;140179;-69
2023/03/18 17:49:34;;;;;;;38.00;17.10;;;;;;;8.98;47.18;99892.17;219692;1256;140066;-67
2023/03/18 17:54:43;;;;;;;31.70;15.30;;;;;;;8.84;47.55;99895.00;218766;1256;139816;-66
2023/03/18 17:59:53;;;;;;;25.70;14.20;;;;;;;8.66;47.67;99891.41;219976;1256;139521;-76
2023/03/18 18:05:01;;;;;;;35.00;13.30;;;;;;;8.41;47.59;99891.42;218453;1257;139579;-74
2023/03/18 18:10:09;;;;;;;26.10;12.80;;;;;;;8.15;47.68;99892.77;218852;1259;140375;-72
2023/03/18 18:15:26;;;;;;;33.60;14.60;;;;;;;8.00;47.82;99890.87;218364;1256;141630;-67
2023/03/18 18:20:31;;;;;;;26.20;15.90;;;;;;;7.90;48.74;99890.83;217731;1256;231754;-69
2023/03/18 18:25:38;;;;;;;23.10;15.20;;;;;;;7.81;49.33;99887.60;217490;1256;139967;-71
2023/03/18 18:30:50;;;;;;;33.00;17.00;;;;;;;7.68;50.07;99888.52;217653;1256;139570;-68
2023/03/18 18:35:55;;;;;;;21.70;12.20;;;;;;;7.58;50.24;99888.26;218530;1258;140565;-70
2023/03/18 18:41:00;;;;;;;25.40;13.60;;;;;;;7.39;51.26;99880.90;217543;1256;140255;-69
2023/03/18 18:46:13;;;;;;;32.90;13.80;;;;;;;7.22;51.17;99884.23;217708;1257;140647;-68
2023/03/18 18:51:21;;;;;;;33.00;18.30;;;;;;;7.03;51.19;99883.67;217969;1255;139679;-69
2023/03/18 18:56:34;;;;;;;26.90;16.30;;;;;;;7.00;51.51;99884.77;217340;1256;138980;-67
2023/03/18 19:01:38;;;;;;;37.90;20.90;;;;;;;6.86;51.99;99886.41;217944;1259;139500;-67
2023/03/18 19:06:49;;;;;;;34.80;18.90;;;;;;;6.78;52.57;99889.42;217650;1257;139220;-65
2023/03/18 19:11:55;;;;;;;39.00;21.40;;;;;;;6.73;53.00;99892.25;218318;1256;140211;-67
2023/03/18 19:16:59;;;;;;;37.10;18.60;;;;;;;6.67;53.58;99890.23;218140;1256;139557;-67
2023/03/18 19:22:06;;;;;;;43.70;20.10;;;;;;;6.53;53.09;99888.07;218897;1256;140241;-65
2023/03/18 19:27:21;;;;;;;40.60;21.70;;;;;;;6.43;52.58;99884.08;217854;1256;139722;-68
2023/03/18 19:32:28;;;;;;;40.20;20.90;;;;;;;6.38;52.99;99886.73;217709;1256;138898;-69
2023/03/18 19:37:34;;;;;;;35.00;18.90;;;;;;;6.31;52.42;99890.12;220392;1257;140052;-66
2023/03/18 19:42:38;;;;;;;42.20;21.10;;;;;;;6.37;52.27;99892.58;217877;1256;139260;-67
2023/03/18 19:47:42;;;;;;;39.10;21.00;;;;;;;6.50;52.29;99899.03;220702;1256;139228;-67
2023/03/18 19:52:46;;;;;;;43.30;21.90;;;;;;;6.57;52.30;99897.20;220526;1256;139059;-67
2023/03/18 19:57:52;;;;;;;34.90;19.00;;;;;;;6.61;52.55;99899.56;218976;1258;140169;-69
2023/03/18 20:02:57;;;;;;;28.00;17.20;;;;;;;6.63;52.13;99900.70;218887;1260;139188;-68
2023/03/18 20:08:01;;;;;;;28.40;15.30;;;;;;;6.69;52.78;99902.91;218143;1256;139958;-70
2023/03/18 20:13:12;;;;;;;28.10;14.80;;;;;;;6.73;52.65;99901.25;219346;1257;138811;-69
2023/03/18 20:18:19;;;;;;;24.80;15.00;;;;;;;6.79;52.24;99902.23;218000;1258;139722;-66
2023/03/18 20:23:28;;;;;;;26.70;15.90;;;;;;;6.84;52.36;99904.87;218214;1258;139029;-65
2023/03/18 20:28:33;;;;;;;27.50;14.30;;;;;;;6.88;52.12;99902.63;217639;1256;139068;-67
2023/03/18 20:33:37;;;;;;;37.60;17.90;;;;;;;6.90;51.90;99897.41;218973;1256;139707;-69
2023/03/18 20:38:48;;;;;;;32.20;18.20;;;;;;;6.91;52.30;99894.27;217992;1256;139869;-69
2023/03/18 20:43:52;;;;;;;;;;;;;;;6.88;51.80;99895.91;218825;1256;139449;-69
2023/03/18 20:48:57;;;;;;;23.90;14.30;;;;;;;6.83;51.98;99890.85;218472;1256;126945;-68
2023/03/18 20:54:22;;;;;;;25.40;15.00;;;;;;;6.82;52.08;99889.84;217814;1256;138885;-67
2023/03/18 20:59:28;;;;;;;29.40;15.30;;;;;;;6.78;51.95;99888.94;218375;1256;140249;-68
2023/03/18 21:04:36;;;;;;;33.10;16.60;;;;;;;6.73;52.09;99886.54;218707;1257;139621;-67
2023/03/18 21:09:42;;;;;;;20.70;12.30;;;;;;;6.69;52.47;99884.82;218318;1258;140006;-67
2023/03/18 21:14:48;;;;;;;28.20;16.30;;;;;;;6.64;52.24;99880.91;217892;1257;138775;-69
2023/03/18 21:19:57;;;;;;;23.50;13.40;;;;;;;6.56;52.16;99880.95;218576;1259;139396;-68
2023/03/18 21:25:25;;;;;;;30.70;16.50;;;;;;;6.50;52.35;99879.10;219408;1256;138984;-70
2023/03/18 21:30:30;;;;;;;31.40;16.40;;;;;;;6.47;52.57;99882.16;219221;1258;139135;-66
2023/03/18 21:35:34;;;;;;;21.10;14.20;;;;;;;6.42;52.42;99877.85;218482;1257;139860;-67
2023/03/18 21:40:42;;;;;;;26.00;14.90;;;;;;;6.36;52.30;99876.85;220428;1257;139019;-69
2023/03/18 21:45:49;;;;;;;25.70;14.30;;;;;;;6.29;52.67;99874.52;220356;1256;139287;-69
2023/03/18 21:50:57;;;;;;;25.20;16.20;;;;;;;6.14;52.97;99871.30;218423;1258;139747;-69
2023/03/18 21:56:01;;;;;;;33.70;18.70;;;;;;;6.03;53.23;99872.80;220068;1258;140049;-68
2023/03/18 22:01:15;;;;;;;29.60;19.00;;;;;;;5.97;53.91;99872.78;217633;1256;139042;-68
2023/03/18 22:06:20;;;;;;;27.60;16.70;;;;;;;5.86;54.11;99872.58;219451;1259;139943;-66
2023/03/18 22:11:26;;;;;;;32.40;17.00;;;;;;;5.72;53.96;99878.64;219210;1256;139305;-67
2023/03/18 22:16:31;;;;;;;27.50;17.10;;;;;;;5.61;54.20;99875.34;219108;1256;139322;-68
2023/03/18 22:21:37;;;;;;;30.30;17.70;;;;;;;5.56;54.26;99879.48;217837;1256;138763;-66
2023/03/18 22:26:42;;;;;;;27.30;15.60;;;;;;;5.49;54.48;99880.52;218465;1260;139514;-67
2023/03/18 22:31:48;;;;;;;28.30;16.00;;;;;;;5.36;55.04;99876.98;217791;1259;139360;-69
2023/03/18 22:36:52;;;;;;;22.60;15.30;;;;;;;5.22;54.90;99874.56;218595;1257;139715;-66
2023/03/18 22:41:58;;;;;;;25.30;15.40;;;;;;;5.06;55.49;99876.27;218296;1256;140172;-73
2023/03/18 22:47:04;;;;;;;26.90;16.20;;;;;;;4.86;55.72;99878.44;218368;1256;139331;-65
2023/03/18 22:52:22;;;;;;;31.10;17.10;;;;;;;4.66;56.24;99881.19;217901;1257;139659;-67
2023/03/18 22:57:28;;;;;;;23.20;15.10;;;;;;;4.49;56.31;99878.83;217740;1256;139594;-68
2023/03/18 23:02:32;;;;;;;25.90;15.20;;;;;;;4.37;56.57;99876.78;218363;1257;139061;-66
2023/03/18 23:07:37;;;;;;;27.50;14.70;;;;;;;4.27;56.85;99877.69;218370;1256;138967;-67
2023/03/18 23:12:42;;;;;;;26.00;14.80;;;;;;;4.17;57.12;99880.15;217881;1258;590940;-68
2023/03/18 23:17:47;;;;;;;25.80;13.40;;;;;;;4.07;57.32;99878.40;218555;1260;139358;-68
2023/03/18 23:22:50;;;;;;;23.30;13.20;;;;;;;4.04;57.40;99882.39;217838;1257;140010;-68
2023/03/18 23:27:54;;;;;;;23.50;14.70;;;;;;;4.09;57.45;99881.98;219247;1258;139064;-67
2023/03/18 23:32:58;;;;;;;21.60;13.00;;;;;;;4.15;57.39;99876.36;220245;1258;138782;-69